Time;durP1;ratioP1;P1;durP2;ratioP2;P2;SDS_P1;SDS_P2;PMS_P1;PMS_P2;Temp;Humidity;BMP_temperature;BMP_pressure;BME280_temperature;BME280_humidity;BME280_pressure;Samples;Min_cycle;Max_cycle;Signal;HPM_P1;HPM_P2
2023/03/19 00:00:01;;;;;;;0.95;0.60;;;18.10;63.60;;;;;;5052569;28;20056;-64
2023/03/19 00:02:31;;;;;;;1.02;0.65;;;18.10;63.60;;;;;;5034772;28;20052;-64
2023/03/19 00:04:58;;;;;;;1.50;0.80;;;18.00;63.60;;;;;;5034816;28;20052;-65
2023/03/19 00:07:25;;;;;;;1.25;0.40;;;18.00;63.60;;;;;;5034810;28;20045;-65
2023/03/19 00:09:52;;;;;;;1.08;0.35;;;18.10;63.60;;;;;;5034518;28;20049;-64
2023/03/19 00:12:19;;;;;;;1.17;0.35;;;18.10;63.60;;;;;;5052097;28;20049;-64
2023/03/19 00:14:46;;;;;;;1.17;0.68;;;18.00;63.50;;;;;;5052545;28;20056;-65
2023/03/19 00:17:13;;;;;;;1.05;0.20;;;18.00;63.50;;;;;;5052083;28;20056;-65
2023/03/19 00:19:41;;;;;;;1.17;0.20;;;18.10;63.50;;;;;;5034283;28;20437;-64
2023/03/19 00:22:08;;;;;;;1.38;0.80;;;18.00;63.50;;;;;;5051287;28;20132;-64
2023/03/19 00:24:35;;;;;;;1.33;0.80;;;18.10;63.50;;;;;;5034362;28;20064;-65
2023/03/19 00:27:03;;;;;;;1.10;0.70;;;18.10;63.50;;;;;;5052012;28;20053;-64
2023/03/19 00:29:30;;;;;;;1.00;0.70;;;18.00;63.50;;;;;;5051829;28;20107;-64
2023/03/19 00:31:57;;;;;;;1.00;0.63;;;18.10;63.50;;;;;;5033943;28;20053;-64
2023/03/19 00:34:24;;;;;;;1.02;0.68;;;18.00;63.50;;;;;;5050393;28;20064;-65
2023/03/19 00:36:53;;;;;;;0.85;0.20;;;18.00;63.50;;;;;;5051796;28;20136;-65
2023/03/19 00:39:20;;;;;;;1.10;0.40;;;18.00;63.50;;;;;;5051754;28;20049;-64
2023/03/19 00:41:49;;;;;;;1.15;0.68;;;18.00;63.50;;;;;;5041643;28;20052;-65
2023/03/19 00:44:17;;;;;;;0.73;0.15;;;18.00;63.50;;;;;;5071750;28;20136;-65
2023/03/19 00:46:44;;;;;;;0.63;0.22;;;18.00;63.50;;;;;;5071398;28;20573;-65
2023/03/19 00:49:11;;;;;;;0.80;0.30;;;18.00;63.50;;;;;;5053852;28;20052;-64
2023/03/19 00:51:42;;;;;;;0.90;0.35;;;18.00;63.50;;;;;;5071468;28;20052;-65
2023/03/19 00:54:11;;;;;;;0.75;0.22;;;18.00;63.50;;;;;;5071445;28;20547;-65
2023/03/19 00:56:38;;;;;;;1.20;0.52;;;18.00;63.50;;;;;;5053736;28;20052;-65
2023/03/19 00:59:05;;;;;;;1.17;0.47;;;18.00;63.50;;;;;;5053492;28;20118;-64
2023/03/19 01:01:33;;;;;;;1.02;0.60;;;18.00;63.50;;;;;;5071332;28;20062;-64
2023/03/19 01:04:00;;;;;;;1.20;0.30;;;18.00;63.50;;;;;;5071341;28;20055;-64
2023/03/19 01:06:27;;;;;;;0.80;0.30;;;18.00;63.60;;;;;;5071088;28;20055;-64
2023/03/19 01:08:54;;;;;;;0.95;0.43;;;18.00;63.50;;;;;;5071346;28;20055;-64
2023/03/19 01:11:22;;;;;;;0.70;0.22;;;18.00;63.50;;;;;;5071170;28;20053;-64
2023/03/19 01:13:49;;;;;;;1.70;0.63;;;18.00;63.60;;;;;;5052949;28;20060;-64
2023/03/19 01:16:16;;;;;;;1.10;0.75;;;18.00;63.60;;;;;;5052981;28;20057;-64
2023/03/19 01:18:43;;;;;;;0.90;0.43;;;18.00;63.50;;;;;;5071329;28;20386;-65
2023/03/19 01:21:10;;;;;;;0.70;0.35;;;18.00;63.60;;;;;;5070862;28;20512;-64
2023/03/19 01:23:37;;;;;;;0.85;0.32;;;18.00;63.50;;;;;;5071274;28;20067;-64
2023/03/19 01:26:05;;;;;;;1.08;0.35;;;18.00;63.50;;;;;;5053451;28;20067;-64
2023/03/19 01:28:33;;;;;;;0.95;0.43;;;18.00;63.50;;;;;;5070640;28;20054;-64
2023/03/19 01:31:01;;;;;;;1.08;0.70;;;18.00;63.50;;;;;;5070948;28;20067;-64
2023/03/19 01:33:28;;;;;;;0.60;0.15;;;18.00;63.50;;;;;;5052689;28;20678;-65
2023/03/19 01:35:56;;;;;;;1.40;0.95;;;18.00;63.50;;;;;;5067158;28;20135;-64
2023/03/19 01:38:24;;;;;;;1.20;0.70;;;17.90;63.40;;;;;;5033238;28;20144;-64
2023/03/19 01:40:51;;;;;;;0.95;0.60;;;18.00;63.50;;;;;;5050835;28;20052;-65
2023/03/19 01:43:20;;;;;;;0.80;0.35;;;18.00;63.40;;;;;;5032713;28;20409;-64
2023/03/19 01:45:50;;;;;;;;;;;17.90;63.40;;;;;;5033283;28;20049;-65
2023/03/19 01:48:22;;;;;;;1.10;0.70;;;18.00;63.40;;;;;;5032938;28;19925;-64
2023/03/19 01:50:52;;;;;;;1.30;0.88;;;18.00;63.40;;;;;;5050733;28;20068;-65
2023/03/19 01:53:23;;;;;;;1.15;0.80;;;18.00;63.40;;;;;;5050688;28;20053;-65
2023/03/19 01:55:52;;;;;;;1.10;0.70;;;17.90;63.40;;;;;;5032920;28;20045;-65
2023/03/19 01:58:19;;;;;;;1.27;0.80;;;17.90;63.40;;;;;;5032385;28;20051;-64
2023/03/19 02:00:46;;;;;;;1.00;0.50;;;17.90;63.40;;;;;;5050317;28;20048;-65
2023/03/19 02:03:14;;;;;;;1.10;0.70;;;17.90;63.40;;;;;;5050570;28;20061;-65
2023/03/19 02:05:44;;;;;;;1.15;0.70;;;17.90;63.40;;;;;;5050456;28;20049;-65
2023/03/19 02:08:14;;;;;;;1.38;0.43;;;17.90;63.40;;;;;;5050412;28;20469;-64
2023/03/19 02:10:43;;;;;;;0.90;0.32;;;17.90;63.40;;;;;;5032534;28;20045;-64
2023/03/19 02:13:11;;;;;;;1.20;0.65;;;17.90;63.50;;;;;;5032310;28;20052;-65
2023/03/19 02:15:38;;;;;;;1.10;0.65;;;17.90;63.40;;;;;;5032339;28;20052;-64
2023/03/19 02:18:06;;;;;;;1.00;0.30;;;17.90;63.40;;;;;;5032606;28;20541;-65
2023/03/19 02:20:41;;;;;;;1.08;0.82;;;17.90;63.40;;;;;;5050071;28;20041;-65
2023/03/19 02:23:16;;;;;;;1.75;0.70;;;17.90;63.40;;;;;;5050542;28;20045;-64
2023/03/19 02:25:56;;;;;;;1.10;0.80;;;17.90;63.50;;;;;;5050023;28;20049;-64
2023/03/19 02:28:25;;;;;;;1.25;0.70;;;17.90;63.50;;;;;;5049854;28;20525;-65
2023/03/19 02:30:52;;;;;;;0.98;0.40;;;17.90;63.40;;;;;;5032439;28;20052;-65
2023/03/19 02:33:19;;;;;;;1.08;0.65;;;17.90;63.40;;;;;;5020543;28;20058;-65
2023/03/19 02:35:49;;;;;;;1.00;0.55;;;17.90;63.40;;;;;;5010397;28;20608;-64
2023/03/19 02:38:16;;;;;;;0.88;0.35;;;17.90;63.40;;;;;;5009321;28;20066;-64
2023/03/19 02:40:50;;;;;;;1.50;0.90;;;17.90;63.40;;;;;;5010462;28;20050;-65
2023/03/19 02:43:21;;;;;;;1.05;0.43;;;17.90;63.40;;;;;;5010400;28;20050;-64
2023/03/19 02:45:48;;;;;;;1.05;0.32;;;17.90;63.40;;;;;;5012481;28;20499;-64
2023/03/19 02:48:15;;;;;;;0.80;0.25;;;17.90;63.40;;;;;;5013131;28;20065;-65
2023/03/19 02:50:42;;;;;;;1.08;0.98;;;17.90;63.40;;;;;;5012666;28;20851;-64
2023/03/19 02:53:09;;;;;;;0.85;0.32;;;17.90;63.40;;;;;;5014141;28;20050;-64
2023/03/19 02:55:36;;;;;;;0.90;0.40;;;17.90;63.40;;;;;;5014425;28;20478;-65
2023/03/19 02:58:03;;;;;;;1.20;0.70;;;17.90;63.40;;;;;;5013082;28;20053;-65
2023/03/19 03:00:31;;;;;;;0.70;0.50;;;17.90;63.40;;;;;;5012737;28;20050;-65
2023/03/19 03:02:58;;;;;;;1.10;0.70;;;17.90;63.40;;;;;;5012918;28;20069;-65
2023/03/19 03:05:26;;;;;;;0.77;0.32;;;17.90;63.40;;;;;;5012919;28;20475;-64
2023/03/19 03:07:53;;;;;;;0.93;0.43;;;17.80;63.30;;;;;;5012927;28;20046;-65
2023/03/19 03:10:20;;;;;;;0.98;0.43;;;17.90;63.40;;;;;;5012529;28;20046;-66
2023/03/19 03:12:47;;;;;;;1.00;0.38;;;17.90;63.40;;;;;;5012506;28;20506;-64
2023/03/19 03:15:14;;;;;;;1.15;0.70;;;17.90;63.40;;;;;;5012239;28;20087;-65
2023/03/19 03:17:44;;;;;;;1.10;0.70;;;17.80;63.30;;;;;;5013685;28;20050;-64
2023/03/19 03:20:14;;;;;;;1.00;0.60;;;17.90;63.40;;;;;;5013985;28;20065;-65
2023/03/19 03:22:42;;;;;;;1.25;0.70;;;17.90;63.40;;;;;;5013762;28;20049;-65
2023/03/19 03:25:10;;;;;;;0.80;0.45;;;17.90;63.40;;;;;;5013595;28;20050;-65
2023/03/19 03:27:37;;;;;;;0.70;0.20;;;17.90;63.40;;;;;;5012051;28;20468;-64
2023/03/19 03:30:06;;;;;;;1.13;0.73;;;17.90;63.50;;;;;;5012530;28;20062;-64
2023/03/19 03:32:34;;;;;;;1.13;0.40;;;17.90;63.50;;;;;;5017018;28;20422;-65
2023/03/19 03:35:03;;;;;;;0.90;0.50;;;17.80;63.40;;;;;;5034958;28;20049;-64
2023/03/19 03:37:30;;;;;;;0.93;0.50;;;17.80;63.40;;;;;;5035094;28;20098;-65
2023/03/19 03:39:57;;;;;;;0.98;0.50;;;17.80;63.40;;;;;;5035179;28;20500;-65
2023/03/19 03:42:24;;;;;;;0.68;0.32;;;17.80;63.40;;;;;;5035483;28;20144;-64
2023/03/19 03:44:51;;;;;;;1.10;0.50;;;17.80;63.40;;;;;;5053094;28;20045;-65
2023/03/19 03:47:18;;;;;;;1.08;0.45;;;17.80;63.40;;;;;;5052783;28;20044;-64
2023/03/19 03:49:45;;;;;;;0.70;0.40;;;17.80;63.40;;;;;;5052916;28;20051;-64
2023/03/19 03:52:14;;;;;;;1.40;0.98;;;17.80;63.40;;;;;;5034654;28;20049;-65
2023/03/19 03:54:40;;;;;;;1.42;0.50;;;17.80;63.30;;;;;;5052687;28;20417;-65
2023/03/19 03:57:08;;;;;;;0.90;0.40;;;17.90;63.40;;;;;;5052501;28;20049;-64
2023/03/19 03:59:35;;;;;;;0.90;0.25;;;17.80;63.30;;;;;;5052452;28;20061;-65
2023/03/19 04:02:02;;;;;;;0.68;0.32;;;17.80;63.30;;;;;;5052686;28;20045;-64
2023/03/19 04:04:29;;;;;;;1.30;0.55;;;17.80;63.30;;;;;;5034648;28;20387;-67
2023/03/19 04:06:56;;;;;;;0.95;0.32;;;17.80;63.30;;;;;;5052614;28;20045;-64
2023/03/19 04:09:25;;;;;;;0.95;0.52;;;17.80;63.40;;;;;;5052820;28;20049;-65
2023/03/19 04:11:52;;;;;;;0.90;0.40;;;17.80;63.30;;;;;;5034707;28;20520;-64
2023/03/19 04:14:19;;;;;;;1.60;0.80;;;17.80;63.30;;;;;;5052163;28;20067;-65
2023/03/19 04:16:46;;;;;;;0.93;0.43;;;17.80;63.30;;;;;;5034418;28;20049;-65
2023/03/19 04:19:13;;;;;;;1.20;0.95;;;17.80;63.30;;;;;;5052328;28;20124;-64
2023/03/19 04:21:40;;;;;;;1.10;0.77;;;17.80;63.40;;;;;;5034235;28;20056;-65
2023/03/19 04:24:08;;;;;;;1.10;0.70;;;17.80;63.40;;;;;;5034627;28;20056;-65
2023/03/19 04:26:37;;;;;;;1.20;0.85;;;17.80;63.40;;;;;;5052350;28;20045;-64
2023/03/19 04:29:04;;;;;;;0.63;0.22;;;17.80;63.40;;;;;;5034075;28;20491;-65
2023/03/19 04:31:32;;;;;;;1.17;0.45;;;17.80;63.40;;;;;;5052034;28;20049;-65
2023/03/19 04:33:59;;;;;;;1.35;0.68;;;17.80;63.40;;;;;;5051797;28;20061;-65
2023/03/19 04:36:26;;;;;;;1.20;0.80;;;17.80;63.40;;;;;;5051799;28;20106;-64
2023/03/19 04:38:53;;;;;;;1.30;1.05;;;17.80;63.40;;;;;;5033984;28;20175;-64
2023/03/19 04:41:20;;;;;;;1.00;0.68;;;17.80;63.40;;;;;;5051775;28;20052;-64
2023/03/19 04:43:48;;;;;;;0.73;0.35;;;17.80;63.40;;;;;;5034014;28;20505;-64
2023/03/19 04:46:15;;;;;;;1.02;0.63;;;17.80;63.40;;;;;;5033829;28;20498;-64
2023/03/19 04:48:42;;;;;;;1.35;0.32;;;17.70;63.40;;;;;;5034140;28;20056;-64
2023/03/19 04:51:09;;;;;;;0.90;0.25;;;17.80;63.40;;;;;;5051868;28;20048;-64
2023/03/19 04:53:36;;;;;;;0.98;0.30;;;17.70;63.40;;;;;;5051840;28;20064;-64
2023/03/19 04:56:04;;;;;;;0.63;0.17;;;17.70;63.40;;;;;;5051602;28;20061;-64
2023/03/19 04:58:31;;;;;;;1.20;0.50;;;17.70;63.40;;;;;;5051563;28;20045;-64
2023/03/19 05:00:59;;;;;;;1.20;0.45;;;17.80;63.40;;;;;;5051785;28;20049;-65
2023/03/19 05:03:26;;;;;;;1.58;0.35;;;17.70;63.40;;;;;;5033783;28;20395;-65
2023/03/19 05:05:54;;;;;;;0.80;0.30;;;17.80;63.40;;;;;;5051429;28;20056;-64
2023/03/19 05:08:21;;;;;;;1.00;0.32;;;17.70;63.40;;;;;;5050914;28;20048;-64
2023/03/19 05:10:48;;;;;;;1.15;0.40;;;17.70;63.40;;;;;;5051516;28;20056;-64
2023/03/19 05:13:15;;;;;;;1.20;0.73;;;17.70;63.40;;;;;;5033376;28;20079;-65
2023/03/19 05:15:43;;;;;;;1.05;0.30;;;17.70;63.40;;;;;;5065128;28;20420;-65
2023/03/19 05:18:11;;;;;;;1.58;1.13;;;17.80;63.40;;;;;;5053423;28;20147;-64
2023/03/19 05:20:39;;;;;;;0.73;0.30;;;17.70;63.40;;;;;;5053191;28;20052;-64
2023/03/19 05:23:06;;;;;;;0.82;0.28;;;17.70;63.40;;;;;;5071354;28;20137;-64
2023/03/19 05:25:35;;;;;;;1.60;0.98;;;17.70;63.40;;;;;;5070872;28;20648;-64
2023/03/19 05:28:02;;;;;;;0.80;0.45;;;17.80;63.40;;;;;;5071352;28;20040;-65
2023/03/19 05:30:29;;;;;;;0.85;0.32;;;17.70;63.40;;;;;;5070999;28;20067;-65
2023/03/19 05:32:56;;;;;;;1.10;0.50;;;17.80;63.40;;;;;;5052928;28;20079;-65
2023/03/19 05:35:25;;;;;;;1.00;0.50;;;17.70;63.40;;;;;;5051328;28;20049;-65
2023/03/19 05:37:52;;;;;;;0.82;0.32;;;17.70;63.40;;;;;;5051098;28;20041;-64
2023/03/19 05:40:19;;;;;;;1.00;0.40;;;17.70;63.90;;;;;;5032907;28;20057;-64
2023/03/19 05:42:46;;;;;;;0.70;0.30;;;17.80;63.30;;;;;;5050908;28;20064;-64
2023/03/19 05:45:13;;;;;;;0.90;0.35;;;17.80;63.30;;;;;;5050555;28;20060;-64
2023/03/19 05:47:40;;;;;;;1.20;0.32;;;17.80;63.20;;;;;;5050518;28;20064;-64
2023/03/19 05:50:07;;;;;;;1.38;0.82;;;17.90;63.10;;;;;;5032778;28;20049;-64
2023/03/19 05:52:36;;;;;;;0.63;0.15;;;17.90;63.00;;;;;;5050650;28;20052;-65
2023/03/19 05:55:03;;;;;;;1.17;0.57;;;18.00;63.00;;;;;;5050518;28;20174;-65
2023/03/19 05:57:30;;;;;;;0.85;0.60;;;18.10;62.90;;;;;;5032586;28;20048;-64
2023/03/19 05:59:57;;;;;;;0.90;0.50;;;18.10;62.90;;;;;;5050429;28;20041;-65
2023/03/19 06:02:24;;;;;;;0.93;0.50;;;18.20;62.80;;;;;;5032468;28;20059;-64
2023/03/19 06:04:51;;;;;;;0.80;0.40;;;18.30;62.70;;;;;;5032518;28;20052;-65
2023/03/19 06:07:18;;;;;;;0.98;0.32;;;18.30;62.60;;;;;;5050457;28;20045;-64
2023/03/19 06:09:46;;;;;;;0.93;0.50;;;18.40;62.50;;;;;;5050427;28;20044;-64
2023/03/19 06:12:13;;;;;;;1.10;0.77;;;18.40;62.50;;;;;;5032380;28;20052;-65
2023/03/19 06:14:40;;;;;;;1.98;0.32;;;18.40;62.40;;;;;;5050218;28;20060;-64
2023/03/19 06:17:08;;;;;;;1.17;0.13;;;18.50;62.40;;;;;;5050158;28;20049;-65
2023/03/19 06:19:35;;;;;;;0.82;0.32;;;18.40;62.30;;;;;;5049483;28;20053;-64
2023/03/19 06:22:02;;;;;;;0.75;0.43;;;18.40;62.30;;;;;;5032285;28;20139;-64
2023/03/19 06:24:29;;;;;;;1.08;0.17;;;18.50;62.40;;;;;;5050343;28;20041;-64
2023/03/19 06:26:58;;;;;;;0.80;0.22;;;18.50;62.40;;;;;;5050248;28;20132;-65
2023/03/19 06:29:25;;;;;;;1.10;0.65;;;18.50;62.40;;;;;;5050394;28;20466;-64
2023/03/19 06:31:52;;;;;;;0.90;0.57;;;18.50;62.40;;;;;;5032283;28;20088;-64
2023/03/19 06:34:19;;;;;;;0.90;0.60;;;18.40;62.30;;;;;;5049727;28;20052;-65
2023/03/19 06:36:46;;;;;;;1.00;0.77;;;18.40;62.40;;;;;;5032046;28;20523;-64
2023/03/19 06:39:13;;;;;;;0.70;0.13;;;18.40;62.40;;;;;;5032005;28;20531;-64
2023/03/19 06:41:40;;;;;;;0.77;0.50;;;18.40;62.50;;;;;;5032272;28;20509;-65
2023/03/19 06:44:09;;;;;;;0.85;0.50;;;18.40;62.50;;;;;;5032324;28;20081;-64
2023/03/19 06:46:36;;;;;;;1.00;0.60;;;18.40;62.50;;;;;;5049928;28;20120;-65
2023/03/19 06:49:03;;;;;;;0.95;0.40;;;18.40;62.50;;;;;;5050094;28;20131;-64
2023/03/19 06:51:30;;;;;;;1.02;0.45;;;18.40;62.60;;;;;;5049923;28;20060;-64
2023/03/19 06:53:57;;;;;;;0.50;0.30;;;18.40;62.60;;;;;;5032095;28;20501;-65
2023/03/19 06:56:24;;;;;;;0.82;0.22;;;18.40;62.60;;;;;;5032543;28;20611;-64
2023/03/19 06:58:51;;;;;;;0.82;0.15;;;18.30;62.60;;;;;;5049739;28;20413;-65
2023/03/19 07:01:20;;;;;;;1.17;0.68;;;18.30;62.60;;;;;;5031777;28;20416;-64
2023/03/19 07:03:47;;;;;;;0.90;0.50;;;18.30;62.70;;;;;;5032193;28;20508;-64
2023/03/19 07:06:14;;;;;;;1.00;0.40;;;18.30;62.70;;;;;;5050045;28;20044;-64
2023/03/19 07:08:45;;;;;;;0.68;0.20;;;18.30;62.70;;;;;;5049989;28;20198;-64
2023/03/19 07:11:12;;;;;;;0.82;0.52;;;18.30;62.80;;;;;;5049610;28;20510;-64
2023/03/19 07:13:39;;;;;;;1.20;0.55;;;18.20;62.70;;;;;;5049859;28;20048;-65
2023/03/19 07:16:07;;;;;;;1.10;0.60;;;18.20;62.80;;;;;;5049624;28;20057;-64
2023/03/19 07:18:35;;;;;;;0.90;0.52;;;18.20;62.80;;;;;;5032088;28;20049;-65
2023/03/19 07:21:03;;;;;;;0.90;0.55;;;18.20;62.80;;;;;;5049672;28;20049;-64
2023/03/19 07:23:30;;;;;;;1.40;0.60;;;18.20;62.80;;;;;;5049478;28;20481;-64
2023/03/19 07:25:57;;;;;;;0.98;0.52;;;18.20;62.80;;;;;;5049577;28;20064;-64
2023/03/19 07:28:24;;;;;;;0.90;0.68;;;18.10;62.80;;;;;;5049451;28;20052;-65
2023/03/19 07:30:52;;;;;;;0.90;0.50;;;18.20;62.90;;;;;;5050636;28;20049;-65
2023/03/19 07:33:20;;;;;;;0.63;0.22;;;18.20;62.90;;;;;;5052912;28;20454;-65
2023/03/19 07:35:49;;;;;;;0.88;0.40;;;18.20;62.90;;;;;;5053258;28;20071;-64
2023/03/19 07:38:16;;;;;;;1.08;0.68;;;18.20;62.90;;;;;;5035354;28;20053;-65
2023/03/19 07:40:43;;;;;;;1.05;0.60;;;18.20;62.90;;;;;;5052926;28;20049;-65
2023/03/19 07:43:10;;;;;;;1.00;0.50;;;18.20;62.90;;;;;;5034914;28;20053;-65
2023/03/19 07:45:37;;;;;;;1.20;0.95;;;18.10;62.80;;;;;;5034756;28;20139;-65
2023/03/19 07:48:05;;;;;;;1.05;0.75;;;18.10;62.90;;;;;;5035180;28;20160;-65
2023/03/19 07:50:32;;;;;;;0.80;0.22;;;18.10;62.90;;;;;;5035549;28;20107;-65
2023/03/19 07:53:01;;;;;;;0.82;0.43;;;18.10;62.90;;;;;;5035172;28;20056;-65
2023/03/19 07:55:28;;;;;;;1.10;0.82;;;18.10;63.00;;;;;;5034808;28;20052;-64
2023/03/19 07:57:55;;;;;;;0.95;0.70;;;18.10;62.90;;;;;;5035015;28;20692;-64
2023/03/19 08:00:22;;;;;;;0.80;0.47;;;18.10;63.00;;;;;;5034915;28;20067;-64
2023/03/19 08:02:49;;;;;;;1.10;0.60;;;18.10;63.00;;;;;;5051560;28;20045;-65
2023/03/19 08:05:16;;;;;;;0.73;0.25;;;18.10;63.00;;;;;;5052707;28;20049;-65
2023/03/19 08:07:43;;;;;;;1.00;0.30;;;18.10;63.00;;;;;;5034925;28;20071;-64
2023/03/19 08:10:12;;;;;;;0.70;0.45;;;18.10;63.00;;;;;;5034625;28;20053;-64
2023/03/19 08:12:40;;;;;;;1.00;0.63;;;18.10;63.00;;;;;;5052452;28;20051;-65
2023/03/19 08:15:09;;;;;;;1.00;0.60;;;18.10;63.00;;;;;;5052019;28;20056;-65
2023/03/19 08:17:37;;;;;;;0.85;0.50;;;18.10;63.00;;;;;;5052187;28;20986;-64
2023/03/19 08:20:07;;;;;;;0.73;0.15;;;18.10;63.00;;;;;;5052306;28;20056;-64
2023/03/19 08:22:34;;;;;;;0.98;0.40;;;18.10;63.10;;;;;;5034486;28;20403;-64
2023/03/19 08:25:01;;;;;;;1.00;0.50;;;18.10;63.10;;;;;;5052209;28;20060;-64
2023/03/19 08:27:30;;;;;;;1.92;0.80;;;18.10;63.00;;;;;;5052207;28;20088;-64
2023/03/19 08:29:57;;;;;;;0.93;0.55;;;18.10;63.10;;;;;;5052419;28;20057;-64
2023/03/19 08:32:24;;;;;;;0.90;0.35;;;18.10;63.10;;;;;;5051930;28;20044;-65
2023/03/19 08:34:51;;;;;;;0.68;0.20;;;18.10;63.10;;;;;;5052045;28;20056;-65
2023/03/19 08:37:19;;;;;;;0.90;0.20;;;18.10;63.10;;;;;;5034174;28;20060;-64
2023/03/19 08:39:46;;;;;;;0.65;0.32;;;18.10;63.10;;;;;;5034211;28;20056;-64
2023/03/19 08:42:13;;;;;;;1.20;0.80;;;18.10;63.10;;;;;;5051452;28;20060;-65
2023/03/19 08:44:41;;;;;;;1.20;0.80;;;18.10;63.10;;;;;;5051556;28;20057;-64
2023/03/19 08:47:08;;;;;;;1.00;0.30;;;18.10;63.10;;;;;;5033813;28;20049;-67
2023/03/19 08:49:35;;;;;;;1.08;0.60;;;18.10;63.00;;;;;;5033798;28;20057;-65
2023/03/19 08:52:02;;;;;;;1.00;0.60;;;18.10;63.10;;;;;;5051942;28;20053;-65
2023/03/19 08:54:29;;;;;;;0.80;0.32;;;18.10;63.00;;;;;;5051529;28;20528;-64
2023/03/19 08:56:56;;;;;;;0.82;0.50;;;18.10;63.00;;;;;;5051568;28;20060;-65
2023/03/19 08:59:25;;;;;;;0.32;0.10;;;18.10;63.00;;;;;;5033975;28;20390;-64
2023/03/19 09:01:54;;;;;;;0.80;0.43;;;18.10;63.00;;;;;;5051541;28;20490;-64
2023/03/19 09:04:21;;;;;;;0.70;0.35;;;18.20;63.10;;;;;;5051399;28;20057;-64
2023/03/19 09:06:50;;;;;;;0.73;0.22;;;18.10;63.00;;;;;;5051764;28;20114;-64
2023/03/19 09:09:18;;;;;;;0.95;0.65;;;18.20;63.10;;;;;;5051668;28;20060;-64
2023/03/19 09:11:45;;;;;;;0.82;0.43;;;18.20;63.10;;;;;;5033711;28;20056;-64
2023/03/19 09:14:15;;;;;;;0.60;0.22;;;18.20;63.10;;;;;;5033579;28;20485;-65
2023/03/19 09:16:42;;;;;;;0.93;0.30;;;18.20;63.10;;;;;;5033060;28;20045;-64
2023/03/19 09:19:11;;;;;;;1.15;0.55;;;18.20;63.10;;;;;;5033440;28;20049;-65
2023/03/19 09:21:38;;;;;;;0.70;0.30;;;18.20;63.10;;;;;;5033403;28;20060;-64
2023/03/19 09:24:06;;;;;;;0.93;0.30;;;18.20;63.00;;;;;;5033492;28;20094;-65
2023/03/19 09:26:33;;;;;;;1.20;0.70;;;18.20;63.00;;;;;;5051249;28;20124;-64
2023/03/19 09:29:00;;;;;;;0.70;0.20;;;18.20;63.10;;;;;;5032948;28;20049;-64
2023/03/19 09:31:27;;;;;;;0.90;0.40;;;18.20;63.00;;;;;;5032866;28;20049;-65
2023/03/19 09:33:54;;;;;;;0.80;0.57;;;18.20;63.10;;;;;;5050528;28;20098;-65
2023/03/19 09:36:22;;;;;;;1.55;0.98;;;18.20;63.10;;;;;;5050746;28;20053;-64
2023/03/19 09:38:49;;;;;;;1.10;0.80;;;18.20;63.10;;;;;;5050681;28;20057;-65
2023/03/19 09:41:24;;;;;;;1.10;0.90;;;18.20;63.00;;;;;;5050802;28;20053;-65
2023/03/19 09:44:02;;;;;;;1.05;0.47;;;18.20;63.00;;;;;;5033097;28;20059;-64
2023/03/19 09:46:43;;;;;;;0.80;0.20;;;18.30;63.10;;;;;;5050606;28;20224;-66
2023/03/19 09:49:16;;;;;;;1.10;0.63;;;18.30;63.20;;;;;;5050109;28;20489;-64
2023/03/19 09:51:48;;;;;;;0.88;0.32;;;18.20;63.10;;;;;;5070929;28;20048;-64
2023/03/19 09:54:28;;;;;;;0.65;0.20;;;18.20;63.10;;;;;;5052733;28;20531;-64
2023/03/19 09:56:55;;;;;;;1.13;0.65;;;18.20;63.10;;;;;;5070698;28;20063;-64
2023/03/19 09:59:24;;;;;;;0.60;0.13;;;18.20;63.10;;;;;;5052644;28;20052;-64
2023/03/19 10:01:58;;;;;;;0.80;0.22;;;18.20;63.10;;;;;;5070622;28;20053;-65
2023/03/19 10:04:40;;;;;;;0.90;0.60;;;18.20;63.10;;;;;;5070325;28;20052;-64
2023/03/19 10:07:21;;;;;;;0.98;0.32;;;18.20;63.00;;;;;;5070606;28;20040;-64
2023/03/19 10:10:02;;;;;;;1.40;0.50;;;18.30;63.10;;;;;;5052520;28;20532;-64
2023/03/19 10:12:44;;;;;;;1.23;0.60;;;18.30;63.10;;;;;;5070670;28;20503;-64
2023/03/19 10:15:18;;;;;;;1.23;0.80;;;18.30;63.10;;;;;;5070178;28;20052;-65
2023/03/19 10:17:54;;;;;;;1.20;0.80;;;18.30;63.00;;;;;;5052399;28;20048;-64
2023/03/19 10:20:30;;;;;;;1.20;0.70;;;18.30;63.00;;;;;;5070449;28;20066;-64
2023/03/19 10:23:10;;;;;;;0.82;0.30;;;18.30;63.10;;;;;;5070123;28;20113;-64
2023/03/19 10:25:39;;;;;;;1.13;0.32;;;18.30;63.10;;;;;;5051959;28;20052;-64
2023/03/19 10:28:14;;;;;;;1.23;0.32;;;18.30;63.10;;;;;;5052055;28;20052;-65
2023/03/19 10:30:42;;;;;;;1.10;0.35;;;18.30;63.10;;;;;;5066590;28;20092;-64
2023/03/19 10:33:17;;;;;;;0.77;0.15;;;18.30;63.10;;;;;;5049936;28;20538;-64
2023/03/19 10:35:47;;;;;;;0.80;0.32;;;18.30;63.20;;;;;;5050115;28;20136;-64
2023/03/19 10:38:21;;;;;;;1.20;0.80;;;18.30;63.10;;;;;;5050409;28;20045;-65
2023/03/19 10:41:01;;;;;;;0.70;0.15;;;18.30;63.20;;;;;;5049886;28;20532;-65
2023/03/19 10:43:33;;;;;;;0.82;0.28;;;18.30;63.10;;;;;;5032264;28;20049;-65
2023/03/19 10:46:00;;;;;;;0.55;0.28;;;18.30;63.10;;;;;;5031648;28;20041;-65
2023/03/19 10:48:28;;;;;;;0.70;0.22;;;18.30;63.20;;;;;;5049120;28;20048;-64
2023/03/19 10:50:59;;;;;;;0.90;0.30;;;18.30;63.20;;;;;;5050085;28;20033;-64
2023/03/19 10:53:34;;;;;;;0.90;0.40;;;18.30;63.70;;;;;;5049763;28;20514;-65
2023/03/19 10:56:04;;;;;;;0.85;0.22;;;18.30;63.20;;;;;;5031858;28;20052;-65
2023/03/19 10:58:32;;;;;;;0.60;0.22;;;18.30;63.20;;;;;;5032247;28;20053;-65
2023/03/19 11:01:04;;;;;;;0.73;0.30;;;18.30;63.20;;;;;;5049775;28;20048;-64
2023/03/19 11:03:34;;;;;;;0.98;0.65;;;18.30;63.20;;;;;;5031841;28;20057;-65
2023/03/19 11:06:07;;;;;;;0.90;0.30;;;18.30;63.20;;;;;;5032800;28;20056;-64
2023/03/19 11:08:37;;;;;;;1.25;1.00;;;18.30;63.20;;;;;;5035514;28;20049;-65
2023/03/19 11:11:04;;;;;;;0.88;0.30;;;18.30;63.20;;;;;;5053322;28;20063;-65
2023/03/19 11:13:35;;;;;;;1.08;0.20;;;18.30;63.20;;;;;;5035699;28;20668;-65
2023/03/19 11:16:04;;;;;;;1.02;0.73;;;18.30;63.50;;;;;;5052950;28;20134;-64
2023/03/19 11:18:38;;;;;;;0.80;0.35;;;18.30;63.20;;;;;;5053404;28;20041;-64
2023/03/19 11:21:08;;;;;;;0.70;0.20;;;18.30;63.20;;;;;;5053152;28;20501;-64
2023/03/19 11:23:41;;;;;;;1.02;0.57;;;18.30;63.20;;;;;;5035305;28;20456;-65
2023/03/19 11:26:09;;;;;;;1.20;0.73;;;18.30;63.20;;;;;;5035325;28;20429;-64
2023/03/19 11:28:37;;;;;;;0.70;0.13;;;18.30;63.20;;;;;;5052814;28;20060;-64
2023/03/19 11:31:15;;;;;;;0.73;0.22;;;18.30;63.20;;;;;;5053231;28;20053;-65
2023/03/19 11:33:56;;;;;;;2.13;0.50;;;18.30;63.30;;;;;;5052433;28;20536;-64
2023/03/19 11:36:27;;;;;;;0.70;0.20;;;18.30;63.20;;;;;;5034614;28;20576;-64
2023/03/19 11:39:09;;;;;;;1.00;0.70;;;18.30;63.20;;;;;;5052616;28;20053;-64
2023/03/19 11:41:51;;;;;;;0.93;0.35;;;18.40;63.30;;;;;;5034953;28;20049;-64
2023/03/19 11:44:21;;;;;;;;;;;18.40;63.20;;;;;;5053188;28;20497;-65
2023/03/19 11:46:54;;;;;;;1.00;0.60;;;18.40;63.20;;;;;;5052408;28;19920;-64
2023/03/19 11:49:49;;;;;;;0.80;0.22;;;18.40;63.10;;;;;;5052738;28;20055;-64
2023/03/19 11:52:23;;;;;;;0.70;0.28;;;18.40;63.10;;;;;;5034578;28;20409;-66
2023/03/19 11:55:04;;;;;;;1.10;0.15;;;18.40;63.10;;;;;;5034735;28;20130;-64
2023/03/19 11:57:51;;;;;;;0.90;0.40;;;18.40;63.20;;;;;;5052563;28;20067;-64
2023/03/19 12:00:28;;;;;;;0.82;0.22;;;18.40;63.20;;;;;;5034708;28;20053;-64
2023/03/19 12:03:24;;;;;;;0.90;0.35;;;18.40;63.10;;;;;;5034701;28;20053;-64
2023/03/19 12:05:57;;;;;;;1.33;0.80;;;18.50;63.30;;;;;;5052294;28;20057;-64
2023/03/19 12:08:32;;;;;;;1.10;0.50;;;18.50;63.20;;;;;;5034516;28;20053;-64
2023/03/19 12:11:11;;;;;;;1.20;0.40;;;18.50;63.20;;;;;;5034064;28;20056;-65
2023/03/19 12:13:51;;;;;;;0.80;0.22;;;18.50;63.20;;;;;;5034403;28;20521;-64
2023/03/19 12:16:26;;;;;;;0.70;0.13;;;18.60;63.30;;;;;;5051511;28;20052;-64
2023/03/19 12:19:10;;;;;;;0.98;0.32;;;18.50;63.20;;;;;;5051302;28;20071;-64
2023/03/19 12:21:50;;;;;;;1.30;0.32;;;18.50;63.20;;;;;;5051964;28;20473;-65
2023/03/19 12:24:28;;;;;;;0.90;0.38;;;18.60;63.20;;;;;;5034250;28;20150;-65
2023/03/19 12:27:06;;;;;;;0.65;0.15;;;18.60;63.20;;;;;;5033910;28;20773;-64
2023/03/19 12:29:43;;;;;;;1.38;0.55;;;18.60;63.30;;;;;;5051773;28;20456;-64
2023/03/19 12:32:25;;;;;;;0.93;0.32;;;18.60;63.20;;;;;;5051791;28;20052;-64
2023/03/19 12:34:56;;;;;;;0.82;0.40;;;18.60;63.20;;;;;;5030280;28;20414;-64
2023/03/19 12:37:29;;;;;;;0.90;0.38;;;18.60;63.20;;;;;;5031743;28;20049;-64
2023/03/19 12:40:14;;;;;;;0.95;0.40;;;18.60;63.30;;;;;;5030587;28;20505;-64
2023/03/19 12:42:42;;;;;;;1.33;0.30;;;18.60;63.30;;;;;;5031733;28;20049;-64
2023/03/19 12:45:23;;;;;;;0.98;0.38;;;18.60;63.20;;;;;;5031503;28;20056;-64
2023/03/19 12:47:55;;;;;;;0.98;0.43;;;18.70;63.40;;;;;;5030148;28;20049;-64
2023/03/19 12:50:25;;;;;;;1.70;0.50;;;18.70;63.40;;;;;;5030464;28;20453;-64
2023/03/19 12:52:57;;;;;;;1.00;0.68;;;18.70;63.30;;;;;;5030251;28;20107;-64
2023/03/19 12:55:35;;;;;;;1.08;0.63;;;18.70;63.30;;;;;;5031587;28;20085;-65
2023/03/19 12:58:10;;;;;;;1.05;0.43;;;18.70;63.40;;;;;;5030123;28;20063;-65